sensor_id;sensor_type;location;lat;lon;timestamp;P1;durP1;ratioP1;P2;durP2;ratioP2
2011;SDS011;1009;51.436;6.972;2023-07-29T00:00:04;1.80;;;1.70;;
2011;SDS011;1009;51.436;6.972;2023-07-29T00:02:32;2.27;;;1.70;;
2011;SDS011;1009;51.436;6.972;2023-07-29T00:04:58;2.27;;;2.07;;
2011;SDS011;1009;51.436;6.972;2023-07-29T00:07:26;2.57;;;2.37;;
2011;SDS011;1009;51.436;6.972;2023-07-29T00:09:54;2.93;;;2.30;;
2011;SDS011;1009;51.436;6.972;2023-07-29T00:12:20;2.60;;;2.13;;
2011;SDS011;1009;51.436;6.972;2023-07-29T00:14:47;4.87;;;3.00;;
2011;SDS011;1009;51.436;6.972;2023-07-29T00:17:14;4.03;;;1.93;;
2011;SDS011;1009;51.436;6.972;2023-07-29T00:19:40;2.50;;;2.30;;
2011;SDS011;1009;51.436;6.972;2023-07-29T00:22:07;3.70;;;2.57;;
2011;SDS011;1009;51.436;6.972;2023-07-29T00:24:34;2.87;;;2.50;;
2011;SDS011;1009;51.436;6.972;2023-07-29T00:27:02;3.00;;;1.83;;
2011;SDS011;1009;51.436;6.972;2023-07-29T00:29:29;2.50;;;2.30;;
2011;SDS011;1009;51.436;6.972;2023-07-29T00:31:56;2.83;;;2.23;;
2011;SDS011;1009;51.436;6.972;2023-07-29T00:34:22;3.13;;;2.50;;
2011;SDS011;1009;51.436;6.972;2023-07-29T00:36:50;2.30;;;2.10;;
2011;SDS011;1009;51.436;6.972;2023-07-29T00:39:17;1.90;;;1.80;;
2011;SDS011;1009;51.436;6.972;2023-07-29T00:41:44;2.77;;;2.30;;
2011;SDS011;1009;51.436;6.972;2023-07-29T00:44:12;5.80;;;2.80;;
2011;SDS011;1009;51.436;6.972;2023-07-29T00:46:39;2.10;;;1.77;;
2011;SDS011;1009;51.436;6.972;2023-07-29T00:49:07;2.37;;;2.10;;
2011;SDS011;1009;51.436;6.972;2023-07-29T00:51:34;2.83;;;2.63;;
2011;SDS011;1009;51.436;6.972;2023-07-29T00:54:01;2.57;;;2.37;;
2011;SDS011;1009;51.436;6.972;2023-07-29T00:56:28;2.20;;;2.00;;
2011;SDS011;1009;51.436;6.972;2023-07-29T00:58:55;3.60;;;2.40;;
2011;SDS011;1009;51.436;6.972;2023-07-29T01:01:28;2.60;;;2.40;;
2011;SDS011;1009;51.436;6.972;2023-07-29T01:03:55;3.17;;;2.27;;
2011;SDS011;1009;51.436;6.972;2023-07-29T01:06:23;2.47;;;2.20;;
2011;SDS011;1009;51.436;6.972;2023-07-29T01:08:56;2.63;;;2.43;;
2011;SDS011;1009;51.436;6.972;2023-07-29T01:11:31;2.40;;;2.20;;
2011;SDS011;1009;51.436;6.972;2023-07-29T01:14:05;2.47;;;2.27;;
2011;SDS011;1009;51.436;6.972;2023-07-29T01:16:55;2.23;;;2.03;;
2011;SDS011;1009;51.436;6.972;2023-07-29T01:19:34;4.40;;;2.00;;
2011;SDS011;1009;51.436;6.972;2023-07-29T01:22:09;2.63;;;2.43;;
2011;SDS011;1009;51.436;6.972;2023-07-29T01:24:38;3.57;;;2.23;;
2011;SDS011;1009;51.436;6.972;2023-07-29T01:27:06;2.40;;;2.00;;
2011;SDS011;1009;51.436;6.972;2023-07-29T01:29:33;2.67;;;2.33;;
2011;SDS011;1009;51.436;6.972;2023-07-29T01:32:01;2.53;;;2.33;;
2011;SDS011;1009;51.436;6.972;2023-07-29T01:34:41;2.20;;;2.00;;
2011;SDS011;1009;51.436;6.972;2023-07-29T01:37:13;2.30;;;2.10;;
2011;SDS011;1009;51.436;6.972;2023-07-29T01:39:45;5.83;;;2.20;;
2011;SDS011;1009;51.436;6.972;2023-07-29T01:42:13;2.60;;;2.07;;
2011;SDS011;1009;51.436;6.972;2023-07-29T01:44:40;2.60;;;2.20;;
2011;SDS011;1009;51.436;6.972;2023-07-29T01:47:07;2.23;;;1.93;;
2011;SDS011;1009;51.436;6.972;2023-07-29T01:49:34;3.10;;;2.27;;
2011;SDS011;1009;51.436;6.972;2023-07-29T01:52:01;8.13;;;2.40;;
2011;SDS011;1009;51.436;6.972;2023-07-29T01:54:28;1.93;;;1.83;;
2011;SDS011;1009;51.436;6.972;2023-07-29T01:56:56;4.60;;;2.60;;
2011;SDS011;1009;51.436;6.972;2023-07-29T01:59:23;1.70;;;1.60;;
2011;SDS011;1009;51.436;6.972;2023-07-29T02:01:50;3.93;;;2.00;;
2011;SDS011;1009;51.436;6.972;2023-07-29T02:04:16;2.33;;;2.13;;
2011;SDS011;1009;51.436;6.972;2023-07-29T02:06:43;3.30;;;2.20;;
2011;SDS011;1009;51.436;6.972;2023-07-29T02:09:10;2.27;;;2.07;;
2011;SDS011;1009;51.436;6.972;2023-07-29T02:11:36;6.17;;;2.13;;
2011;SDS011;1009;51.436;6.972;2023-07-29T02:14:04;2.10;;;2.00;;
2011;SDS011;1009;51.436;6.972;2023-07-29T02:16:31;2.93;;;2.00;;
2011;SDS011;1009;51.436;6.972;2023-07-29T02:18:59;2.30;;;2.10;;
2011;SDS011;1009;51.436;6.972;2023-07-29T02:21:26;1.87;;;1.77;;
2011;SDS011;1009;51.436;6.972;2023-07-29T02:23:53;2.53;;;1.67;;
2011;SDS011;1009;51.436;6.972;2023-07-29T02:26:19;3.90;;;2.20;;
2011;SDS011;1009;51.436;6.972;2023-07-29T02:28:46;4.13;;;2.90;;
2011;SDS011;1009;51.436;6.972;2023-07-29T02:31:16;2.50;;;2.30;;
2011;SDS011;1009;51.436;6.972;2023-07-29T02:33:43;3.53;;;2.30;;
2011;SDS011;1009;51.436;6.972;2023-07-29T02:36:11;3.13;;;2.60;;
2011;SDS011;1009;51.436;6.972;2023-07-29T02:38:38;2.40;;;2.17;;
2011;SDS011;1009;51.436;6.972;2023-07-29T02:41:05;3.27;;;2.00;;
2011;SDS011;1009;51.436;6.972;2023-07-29T02:43:33;3.00;;;2.70;;
2011;SDS011;1009;51.436;6.972;2023-07-29T02:46:00;2.53;;;2.33;;
2011;SDS011;1009;51.436;6.972;2023-07-29T02:48:28;2.33;;;2.13;;
2011;SDS011;1009;51.436;6.972;2023-07-29T02:50:55;1.90;;;1.80;;
2011;SDS011;1009;51.436;6.972;2023-07-29T02:53:22;3.13;;;2.70;;
2011;SDS011;1009;51.436;6.972;2023-07-29T02:55:49;3.13;;;2.70;;
2011;SDS011;1009;51.436;6.972;2023-07-29T02:58:16;2.63;;;2.40;;
2011;SDS011;1009;51.436;6.972;2023-07-29T03:00:43;2.50;;;2.30;;
2011;SDS011;1009;51.436;6.972;2023-07-29T03:03:10;5.33;;;2.50;;
2011;SDS011;1009;51.436;6.972;2023-07-29T03:05:38;2.70;;;2.43;;
2011;SDS011;1009;51.436;6.972;2023-07-29T03:08:05;2.60;;;2.40;;
2011;SDS011;1009;51.436;6.972;2023-07-29T03:10:34;2.60;;;2.40;;
2011;SDS011;1009;51.436;6.972;2023-07-29T03:13:01;3.70;;;2.60;;
2011;SDS011;1009;51.436;6.972;2023-07-29T03:15:28;3.30;;;3.00;;
2011;SDS011;1009;51.436;6.972;2023-07-29T03:17:54;3.90;;;2.80;;
2011;SDS011;1009;51.436;6.972;2023-07-29T03:20:21;3.00;;;2.70;;
2011;SDS011;1009;51.436;6.972;2023-07-29T03:22:49;3.37;;;2.60;;
2011;SDS011;1009;51.436;6.972;2023-07-29T03:25:16;3.40;;;3.07;;
2011;SDS011;1009;51.436;6.972;2023-07-29T03:27:43;5.30;;;2.70;;
2011;SDS011;1009;51.436;6.972;2023-07-29T03:30:10;4.33;;;2.70;;
2011;SDS011;1009;51.436;6.972;2023-07-29T03:32:39;5.10;;;3.43;;
2011;SDS011;1009;51.436;6.972;2023-07-29T03:35:09;3.97;;;3.23;;
2011;SDS011;1009;51.436;6.972;2023-07-29T03:37:36;3.17;;;2.80;;
2011;SDS011;1009;51.436;6.972;2023-07-29T03:40:05;5.90;;;3.93;;
2011;SDS011;1009;51.436;6.972;2023-07-29T03:42:34;3.40;;;3.10;;
2011;SDS011;1009;51.436;6.972;2023-07-29T03:45:00;3.20;;;2.77;;
2011;SDS011;1009;51.436;6.972;2023-07-29T03:47:27;3.60;;;3.00;;
2011;SDS011;1009;51.436;6.972;2023-07-29T03:49:54;4.03;;;3.63;;
2011;SDS011;1009;51.436;6.972;2023-07-29T03:52:21;5.17;;;4.40;;
2011;SDS011;1009;51.436;6.972;2023-07-29T03:54:47;4.53;;;3.87;;
2011;SDS011;1009;51.436;6.972;2023-07-29T03:57:16;5.47;;;4.03;;
2011;SDS011;1009;51.436;6.972;2023-07-29T03:59:43;4.57;;;3.90;;
2011;SDS011;1009;51.436;6.972;2023-07-29T04:02:10;3.87;;;3.50;;
2011;SDS011;1009;51.436;6.972;2023-07-29T04:04:36;5.93;;;4.20;;
2011;SDS011;1009;51.436;6.972;2023-07-29T04:07:03;5.07;;;4.57;;
2011;SDS011;1009;51.436;6.972;2023-07-29T04:09:31;9.23;;;3.40;;
2011;SDS011;1009;51.436;6.972;2023-07-29T04:11:58;8.27;;;4.03;;
2011;SDS011;1009;51.436;6.972;2023-07-29T04:14:26;5.83;;;4.20;;
2011;SDS011;1009;51.436;6.972;2023-07-29T04:16:53;4.43;;;3.97;;
2011;SDS011;1009;51.436;6.972;2023-07-29T04:19:20;7.30;;;4.13;;
2011;SDS011;1009;51.436;6.972;2023-07-29T04:21:47;5.17;;;4.13;;
2011;SDS011;1009;51.436;6.972;2023-07-29T04:24:15;4.83;;;4.27;;
2011;SDS011;1009;51.436;6.972;2023-07-29T04:26:42;4.73;;;3.90;;
2011;SDS011;1009;51.436;6.972;2023-07-29T04:29:09;12.80;;;5.10;;
2011;SDS011;1009;51.436;6.972;2023-07-29T04:31:38;6.50;;;4.40;;
2011;SDS011;1009;51.436;6.972;2023-07-29T04:34:05;5.60;;;4.63;;
2011;SDS011;1009;51.436;6.972;2023-07-29T04:36:32;6.10;;;5.50;;
2011;SDS011;1009;51.436;6.972;2023-07-29T04:38:58;6.03;;;5.30;;
2011;SDS011;1009;51.436;6.972;2023-07-29T04:41:25;9.63;;;5.40;;
2011;SDS011;1009;51.436;6.972;2023-07-29T04:43:52;7.03;;;4.20;;
2011;SDS011;1009;51.436;6.972;2023-07-29T04:46:18;6.17;;;4.97;;
2011;SDS011;1009;51.436;6.972;2023-07-29T04:48:46;5.80;;;5.17;;
2011;SDS011;1009;51.436;6.972;2023-07-29T04:51:13;6.53;;;5.47;;
2011;SDS011;1009;51.436;6.972;2023-07-29T04:53:40;6.93;;;5.43;;
2011;SDS011;1009;51.436;6.972;2023-07-29T04:56:07;6.63;;;5.57;;
2011;SDS011;1009;51.436;6.972;2023-07-29T04:58:34;7.23;;;5.73;;
2011;SDS011;1009;51.436;6.972;2023-07-29T05:01:00;7.40;;;5.80;;
2011;SDS011;1009;51.436;6.972;2023-07-29T05:03:27;7.87;;;6.43;;
2011;SDS011;1009;51.436;6.972;2023-07-29T05:05:56;8.80;;;6.47;;
2011;SDS011;1009;51.436;6.972;2023-07-29T05:08:24;9.37;;;6.60;;
2011;SDS011;1009;51.436;6.972;2023-07-29T05:10:51;9.27;;;7.03;;
2011;SDS011;1009;51.436;6.972;2023-07-29T05:13:18;8.50;;;6.83;;
2011;SDS011;1009;51.436;6.972;2023-07-29T05:15:46;9.67;;;7.77;;
2011;SDS011;1009;51.436;6.972;2023-07-29T05:18:13;10.40;;;7.20;;
2011;SDS011;1009;51.436;6.972;2023-07-29T05:20:40;12.73;;;7.20;;
2011;SDS011;1009;51.436;6.972;2023-07-29T05:23:09;9.93;;;7.80;;
2011;SDS011;1009;51.436;6.972;2023-07-29T05:25:36;10.23;;;7.67;;
2011;SDS011;1009;51.436;6.972;2023-07-29T05:28:03;9.07;;;7.90;;
2011;SDS011;1009;51.436;6.972;2023-07-29T05:30:30;11.63;;;9.43;;
2011;SDS011;1009;51.436;6.972;2023-07-29T05:32:59;10.53;;;8.23;;
2011;SDS011;1009;51.436;6.972;2023-07-29T05:35:25;10.90;;;8.50;;
2011;SDS011;1009;51.436;6.972;2023-07-29T05:37:52;13.40;;;9.57;;
2011;SDS011;1009;51.436;6.972;2023-07-29T05:40:21;13.10;;;8.47;;
2011;SDS011;1009;51.436;6.972;2023-07-29T05:42:47;12.60;;;9.20;;
2011;SDS011;1009;51.436;6.972;2023-07-29T05:45:14;10.23;;;8.00;;
2011;SDS011;1009;51.436;6.972;2023-07-29T05:47:41;10.67;;;7.83;;
2011;SDS011;1009;51.436;6.972;2023-07-29T05:50:08;10.23;;;6.90;;
2011;SDS011;1009;51.436;6.972;2023-07-29T05:52:36;9.23;;;6.13;;
2011;SDS011;1009;51.436;6.972;2023-07-29T05:55:03;8.23;;;5.83;;
2011;SDS011;1009;51.436;6.972;2023-07-29T05:57:32;7.87;;;6.77;;
2011;SDS011;1009;51.436;6.972;2023-07-29T05:59:58;12.70;;;6.00;;
2011;SDS011;1009;51.436;6.972;2023-07-29T06:02:25;7.60;;;5.37;;
2011;SDS011;1009;51.436;6.972;2023-07-29T06:04:52;5.80;;;4.60;;
2011;SDS011;1009;51.436;6.972;2023-07-29T06:07:19;5.90;;;4.20;;
2011;SDS011;1009;51.436;6.972;2023-07-29T06:09:46;4.47;;;3.47;;
2011;SDS011;1009;51.436;6.972;2023-07-29T06:12:13;5.33;;;3.30;;
2011;SDS011;1009;51.436;6.972;2023-07-29T06:14:41;3.93;;;3.10;;
2011;SDS011;1009;51.436;6.972;2023-07-29T06:17:08;3.07;;;2.70;;
2011;SDS011;1009;51.436;6.972;2023-07-29T06:19:40;3.20;;;2.70;;
2011;SDS011;1009;51.436;6.972;2023-07-29T06:22:06;4.03;;;2.73;;
2011;SDS011;1009;51.436;6.972;2023-07-29T06:24:33;3.77;;;2.70;;
2011;SDS011;1009;51.436;6.972;2023-07-29T06:27:00;2.80;;;2.20;;
2011;SDS011;1009;51.436;6.972;2023-07-29T06:29:27;3.47;;;2.50;;
2011;SDS011;1009;51.436;6.972;2023-07-29T06:31:55;3.57;;;2.47;;
2011;SDS011;1009;51.436;6.972;2023-07-29T06:34:22;2.87;;;2.00;;
2011;SDS011;1009;51.436;6.972;2023-07-29T06:36:48;3.80;;;2.60;;
2011;SDS011;1009;51.436;6.972;2023-07-29T06:39:15;4.80;;;2.10;;
2011;SDS011;1009;51.436;6.972;2023-07-29T06:41:42;2.70;;;2.10;;
2011;SDS011;1009;51.436;6.972;2023-07-29T06:44:08;3.70;;;2.10;;
2011;SDS011;1009;51.436;6.972;2023-07-29T06:46:35;2.87;;;2.47;;
2011;SDS011;1009;51.436;6.972;2023-07-29T06:49:05;2.07;;;1.63;;
2011;SDS011;1009;51.436;6.972;2023-07-29T06:51:31;3.23;;;2.37;;
2011;SDS011;1009;51.436;6.972;2023-07-29T06:54:00;2.83;;;1.90;;
2011;SDS011;1009;51.436;6.972;2023-07-29T06:56:28;2.10;;;1.90;;
2011;SDS011;1009;51.436;6.972;2023-07-29T06:58:55;3.13;;;1.53;;
2011;SDS011;1009;51.436;6.972;2023-07-29T07:01:21;1.50;;;1.40;;
2011;SDS011;1009;51.436;6.972;2023-07-29T07:03:48;6.03;;;2.23;;
2011;SDS011;1009;51.436;6.972;2023-07-29T07:06:16;4.30;;;1.70;;
2011;SDS011;1009;51.436;6.972;2023-07-29T07:08:43;3.20;;;2.00;;
2011;SDS011;1009;51.436;6.972;2023-07-29T07:11:10;4.20;;;2.80;;
2011;SDS011;1009;51.436;6.972;2023-07-29T07:13:36;2.20;;;1.97;;
2011;SDS011;1009;51.436;6.972;2023-07-29T07:16:06;3.57;;;2.63;;
2011;SDS011;1009;51.436;6.972;2023-07-29T07:18:32;2.63;;;1.83;;
2011;SDS011;1009;51.436;6.972;2023-07-29T07:20:59;4.10;;;2.80;;
2011;SDS011;1009;51.436;6.972;2023-07-29T07:23:27;4.20;;;2.63;;
2011;SDS011;1009;51.436;6.972;2023-07-29T07:25:54;2.80;;;2.07;;
2011;SDS011;1009;51.436;6.972;2023-07-29T07:28:21;3.17;;;1.93;;
2011;SDS011;1009;51.436;6.972;2023-07-29T07:30:48;2.50;;;1.30;;
2011;SDS011;1009;51.436;6.972;2023-07-29T07:33:14;4.60;;;2.27;;
2011;SDS011;1009;51.436;6.972;2023-07-29T07:35:41;2.97;;;1.77;;
2011;SDS011;1009;51.436;6.972;2023-07-29T07:38:08;3.70;;;1.90;;
2011;SDS011;1009;51.436;6.972;2023-07-29T07:40:36;2.67;;;1.70;;
2011;SDS011;1009;51.436;6.972;2023-07-29T07:43:03;7.17;;;2.53;;
2011;SDS011;1009;51.436;6.972;2023-07-29T07:45:31;2.97;;;1.90;;
2011;SDS011;1009;51.436;6.972;2023-07-29T07:47:58;3.63;;;1.70;;
2011;SDS011;1009;51.436;6.972;2023-07-29T07:50:25;1.60;;;1.20;;
2011;SDS011;1009;51.436;6.972;2023-07-29T07:52:55;3.10;;;1.60;;
2011;SDS011;1009;51.436;6.972;2023-07-29T07:55:21;2.33;;;1.70;;
2011;SDS011;1009;51.436;6.972;2023-07-29T07:57:49;1.10;;;0.90;;
2011;SDS011;1009;51.436;6.972;2023-07-29T08:00:16;1.87;;;0.87;;
2011;SDS011;1009;51.436;6.972;2023-07-29T08:02:44;3.80;;;1.47;;
2011;SDS011;1009;51.436;6.972;2023-07-29T08:05:11;2.17;;;1.40;;
2011;SDS011;1009;51.436;6.972;2023-07-29T08:07:38;1.97;;;1.50;;
2011;SDS011;1009;51.436;6.972;2023-07-29T08:10:06;2.60;;;1.70;;
2011;SDS011;1009;51.436;6.972;2023-07-29T08:12:33;2.23;;;1.80;;
2011;SDS011;1009;51.436;6.972;2023-07-29T08:15:01;1.77;;;1.67;;
2011;SDS011;1009;51.436;6.972;2023-07-29T08:17:28;2.23;;;1.33;;
2011;SDS011;1009;51.436;6.972;2023-07-29T08:19:55;1.73;;;1.40;;
2011;SDS011;1009;51.436;6.972;2023-07-29T08:22:22;1.53;;;1.27;;
2011;SDS011;1009;51.436;6.972;2023-07-29T08:24:49;1.77;;;1.20;;
2011;SDS011;1009;51.436;6.972;2023-07-29T08:27:15;2.90;;;1.43;;
2011;SDS011;1009;51.436;6.972;2023-07-29T08:29:42;1.90;;;1.37;;
2011;SDS011;1009;51.436;6.972;2023-07-29T08:32:10;2.90;;;1.70;;
2011;SDS011;1009;51.436;6.972;2023-07-29T08:34:37;1.73;;;1.43;;
2011;SDS011;1009;51.436;6.972;2023-07-29T08:37:04;2.80;;;2.23;;
2011;SDS011;1009;51.436;6.972;2023-07-29T08:39:31;3.40;;;2.47;;
2011;SDS011;1009;51.436;6.972;2023-07-29T08:41:59;2.60;;;1.70;;
2011;SDS011;1009;51.436;6.972;2023-07-29T08:44:31;2.10;;;1.90;;
2011;SDS011;1009;51.436;6.972;2023-07-29T08:47:02;1.53;;;1.30;;
2011;SDS011;1009;51.436;6.972;2023-07-29T08:49:30;1.93;;;1.50;;
2011;SDS011;1009;51.436;6.972;2023-07-29T08:51:58;1.90;;;1.33;;
2011;SDS011;1009;51.436;6.972;2023-07-29T08:54:25;3.40;;;1.50;;
2011;SDS011;1009;51.436;6.972;2023-07-29T08:56:52;1.60;;;1.50;;
2011;SDS011;1009;51.436;6.972;2023-07-29T08:59:19;2.90;;;1.70;;
2011;SDS011;1009;51.436;6.972;2023-07-29T09:01:46;1.67;;;1.53;;
2011;SDS011;1009;51.436;6.972;2023-07-29T09:04:13;1.80;;;1.50;;
2011;SDS011;1009;51.436;6.972;2023-07-29T09:06:43;3.80;;;1.87;;
2011;SDS011;1009;51.436;6.972;2023-07-29T09:09:10;2.40;;;1.23;;
2011;SDS011;1009;51.436;6.972;2023-07-29T09:11:37;1.33;;;1.13;;
2011;SDS011;1009;51.436;6.972;2023-07-29T09:14:04;1.53;;;1.13;;
2011;SDS011;1009;51.436;6.972;2023-07-29T09:16:31;1.20;;;0.90;;
2011;SDS011;1009;51.436;6.972;2023-07-29T09:19:00;1.27;;;0.90;;
2011;SDS011;1009;51.436;6.972;2023-07-29T09:21:28;1.50;;;0.93;;
2011;SDS011;1009;51.436;6.972;2023-07-29T09:23:57;1.33;;;0.70;;
2011;SDS011;1009;51.436;6.972;2023-07-29T09:26:29;2.03;;;1.00;;
2011;SDS011;1009;51.436;6.972;2023-07-29T09:28:57;1.07;;;0.90;;
2011;SDS011;1009;51.436;6.972;2023-07-29T09:31:28;1.83;;;1.17;;
2011;SDS011;1009;51.436;6.972;2023-07-29T09:33:55;1.93;;;1.37;;
2011;SDS011;1009;51.436;6.972;2023-07-29T09:36:24;1.60;;;1.30;;
2011;SDS011;1009;51.436;6.972;2023-07-29T09:38:54;1.37;;;1.27;;
2011;SDS011;1009;51.436;6.972;2023-07-29T09:41:25;1.60;;;1.23;;
2011;SDS011;1009;51.436;6.972;2023-07-29T09:43:58;2.30;;;1.33;;
2011;SDS011;1009;51.436;6.972;2023-07-29T09:46:32;2.00;;;1.23;;
2011;SDS011;1009;51.436;6.972;2023-07-29T09:49:00;1.57;;;1.30;;
2011;SDS011;1009;51.436;6.972;2023-07-29T09:51:38;1.97;;;1.33;;
2011;SDS011;1009;51.436;6.972;2023-07-29T09:54:07;1.20;;;1.00;;
2011;SDS011;1009;51.436;6.972;2023-07-29T09:56:35;1.33;;;0.90;;
2011;SDS011;1009;51.436;6.972;2023-07-29T09:59:07;2.67;;;1.23;;
2011;SDS011;1009;51.436;6.972;2023-07-29T10:01:37;1.53;;;1.07;;
2011;SDS011;1009;51.436;6.972;2023-07-29T10:04:05;1.00;;;0.70;;
2011;SDS011;1009;51.436;6.972;2023-07-29T10:06:32;1.20;;;0.90;;
2011;SDS011;1009;51.436;6.972;2023-07-29T10:09:00;1.33;;;0.90;;
2011;SDS011;1009;51.436;6.972;2023-07-29T10:11:29;1.03;;;0.80;;
2011;SDS011;1009;51.436;6.972;2023-07-29T10:13:57;1.13;;;0.87;;
2011;SDS011;1009;51.436;6.972;2023-07-29T10:16:25;1.20;;;0.70;;
2011;SDS011;1009;51.436;6.972;2023-07-29T10:18:52;0.70;;;0.60;;
2011;SDS011;1009;51.436;6.972;2023-07-29T10:21:20;1.10;;;0.90;;
2011;SDS011;1009;51.436;6.972;2023-07-29T10:23:48;1.53;;;1.10;;
2011;SDS011;1009;51.436;6.972;2023-07-29T10:26:19;1.60;;;1.07;;
2011;SDS011;1009;51.436;6.972;2023-07-29T10:28:47;1.97;;;1.53;;
2011;SDS011;1009;51.436;6.972;2023-07-29T10:31:20;1.77;;;1.37;;
2011;SDS011;1009;51.436;6.972;2023-07-29T10:33:49;1.70;;;1.57;;
2011;SDS011;1009;51.436;6.972;2023-07-29T10:36:16;2.37;;;1.30;;
2011;SDS011;1009;51.436;6.972;2023-07-29T10:38:43;2.53;;;1.30;;
2011;SDS011;1009;51.436;6.972;2023-07-29T10:41:10;1.90;;;1.60;;
2011;SDS011;1009;51.436;6.972;2023-07-29T10:43:37;2.13;;;1.57;;
2011;SDS011;1009;51.436;6.972;2023-07-29T10:46:18;2.47;;;1.60;;
2011;SDS011;1009;51.436;6.972;2023-07-29T10:48:51;1.80;;;1.60;;
2011;SDS011;1009;51.436;6.972;2023-07-29T10:51:23;1.73;;;1.63;;
2011;SDS011;1009;51.436;6.972;2023-07-29T10:53:54;2.60;;;1.83;;
2011;SDS011;1009;51.436;6.972;2023-07-29T10:56:28;1.93;;;1.03;;
2011;SDS011;1009;51.436;6.972;2023-07-29T10:58:57;1.33;;;1.20;;
2011;SDS011;1009;51.436;6.972;2023-07-29T11:01:30;2.57;;;1.10;;
2011;SDS011;1009;51.436;6.972;2023-07-29T11:09:52;1.43;;;1.10;;
2011;SDS011;1009;51.436;6.972;2023-07-29T11:12:33;1.20;;;0.90;;
2011;SDS011;1009;51.436;6.972;2023-07-29T11:15:21;1.40;;;0.97;;
2011;SDS011;1009;51.436;6.972;2023-07-29T11:17:51;4.70;;;1.13;;
2011;SDS011;1009;51.436;6.972;2023-07-29T11:20:19;1.20;;;1.00;;
2011;SDS011;1009;51.436;6.972;2023-07-29T11:22:47;1.77;;;1.20;;
2011;SDS011;1009;51.436;6.972;2023-07-29T11:25:14;1.07;;;0.80;;
2011;SDS011;1009;51.436;6.972;2023-07-29T11:27:42;2.20;;;0.93;;
2011;SDS011;1009;51.436;6.972;2023-07-29T11:30:10;1.53;;;1.13;;
2011;SDS011;1009;51.436;6.972;2023-07-29T11:32:39;2.10;;;1.20;;
2011;SDS011;1009;51.436;6.972;2023-07-29T11:35:09;1.90;;;1.00;;
2011;SDS011;1009;51.436;6.972;2023-07-29T11:37:38;0.90;;;0.80;;
2011;SDS011;1009;51.436;6.972;2023-07-29T11:40:06;1.40;;;1.00;;
2011;SDS011;1009;51.436;6.972;2023-07-29T11:42:35;1.20;;;0.90;;
2011;SDS011;1009;51.436;6.972;2023-07-29T11:45:03;1.63;;;0.87;;
2011;SDS011;1009;51.436;6.972;2023-07-29T11:47:31;2.43;;;1.40;;
2011;SDS011;1009;51.436;6.972;2023-07-29T11:50:00;2.50;;;1.47;;
2011;SDS011;1009;51.436;6.972;2023-07-29T11:52:30;1.10;;;1.00;;
2011;SDS011;1009;51.436;6.972;2023-07-29T11:54:58;1.27;;;0.93;;
2011;SDS011;1009;51.436;6.972;2023-07-29T11:57:26;0.97;;;0.80;;
2011;SDS011;1009;51.436;6.972;2023-07-29T11:59:53;1.53;;;1.03;;
2011;SDS011;1009;51.436;6.972;2023-07-29T12:02:19;1.30;;;1.00;;
2011;SDS011;1009;51.436;6.972;2023-07-29T12:04:47;1.93;;;1.10;;
2011;SDS011;1009;51.436;6.972;2023-07-29T12:07:16;2.63;;;1.20;;
2011;SDS011;1009;51.436;6.972;2023-07-29T12:09:45;1.57;;;1.40;;
2011;SDS011;1009;51.436;6.972;2023-07-29T12:12:12;1.80;;;1.20;;
2011;SDS011;1009;51.436;6.972;2023-07-29T12:14:42;1.00;;;0.90;;
2011;SDS011;1009;51.436;6.972;2023-07-29T12:17:10;1.20;;;1.10;;
2011;SDS011;1009;51.436;6.972;2023-07-29T12:19:37;1.80;;;1.00;;
2011;SDS011;1009;51.436;6.972;2023-07-29T12:22:05;1.27;;;1.00;;
2011;SDS011;1009;51.436;6.972;2023-07-29T12:24:35;1.10;;;1.00;;
2011;SDS011;1009;51.436;6.972;2023-07-29T12:27:04;1.43;;;1.07;;
2011;SDS011;1009;51.436;6.972;2023-07-29T12:29:39;0.90;;;0.70;;
2011;SDS011;1009;51.436;6.972;2023-07-29T12:32:07;1.63;;;1.10;;
2011;SDS011;1009;51.436;6.972;2023-07-29T12:34:34;1.63;;;1.10;;
2011;SDS011;1009;51.436;6.972;2023-07-29T12:37:03;1.10;;;0.90;;
2011;SDS011;1009;51.436;6.972;2023-07-29T12:39:31;5.10;;;1.37;;
2011;SDS011;1009;51.436;6.972;2023-07-29T12:42:00;1.20;;;1.00;;
2011;SDS011;1009;51.436;6.972;2023-07-29T12:44:30;1.50;;;1.00;;
2011;SDS011;1009;51.436;6.972;2023-07-29T12:46:58;1.40;;;0.90;;
2011;SDS011;1009;51.436;6.972;2023-07-29T12:49:26;2.03;;;1.20;;
2011;SDS011;1009;51.436;6.972;2023-07-29T12:51:53;1.57;;;1.13;;
2011;SDS011;1009;51.436;6.972;2023-07-29T12:54:20;2.23;;;1.33;;
2011;SDS011;1009;51.436;6.972;2023-07-29T12:56:47;1.27;;;1.03;;
2011;SDS011;1009;51.436;6.972;2023-07-29T12:59:14;1.20;;;1.10;;
2011;SDS011;1009;51.436;6.972;2023-07-29T13:01:42;1.53;;;1.30;;
2011;SDS011;1009;51.436;6.972;2023-07-29T13:04:09;1.07;;;0.87;;
2011;SDS011;1009;51.436;6.972;2023-07-29T13:06:36;1.53;;;1.30;;
2011;SDS011;1009;51.436;6.972;2023-07-29T13:09:02;1.13;;;1.03;;
2011;SDS011;1009;51.436;6.972;2023-07-29T13:11:30;1.37;;;1.27;;
2011;SDS011;1009;51.436;6.972;2023-07-29T13:13:58;1.53;;;1.10;;
2011;SDS011;1009;51.436;6.972;2023-07-29T13:16:25;1.80;;;1.10;;
2011;SDS011;1009;51.436;6.972;2023-07-29T13:18:54;1.60;;;1.23;;
2011;SDS011;1009;51.436;6.972;2023-07-29T13:21:21;4.47;;;1.30;;
2011;SDS011;1009;51.436;6.972;2023-07-29T13:23:48;1.47;;;1.20;;
2011;SDS011;1009;51.436;6.972;2023-07-29T13:26:15;2.30;;;1.40;;
2011;SDS011;1009;51.436;6.972;2023-07-29T13:28:42;1.23;;;1.00;;
2011;SDS011;1009;51.436;6.972;2023-07-29T13:31:09;2.30;;;1.07;;
2011;SDS011;1009;51.436;6.972;2023-07-29T13:33:35;1.93;;;1.33;;
2011;SDS011;1009;51.436;6.972;2023-07-29T13:36:04;2.17;;;1.40;;
2011;SDS011;1009;51.436;6.972;2023-07-29T13:38:33;3.60;;;1.60;;
2011;SDS011;1009;51.436;6.972;2023-07-29T13:41:00;2.10;;;1.23;;
2011;SDS011;1009;51.436;6.972;2023-07-29T13:43:27;2.10;;;1.10;;
2011;SDS011;1009;51.436;6.972;2023-07-29T13:45:54;2.13;;;1.30;;
2011;SDS011;1009;51.436;6.972;2023-07-29T13:48:20;2.77;;;1.40;;
2011;SDS011;1009;51.436;6.972;2023-07-29T13:50:47;1.43;;;1.20;;
2011;SDS011;1009;51.436;6.972;2023-07-29T13:53:17;2.33;;;1.40;;
2011;SDS011;1009;51.436;6.972;2023-07-29T13:55:44;1.70;;;1.33;;
2011;SDS011;1009;51.436;6.972;2023-07-29T13:58:11;2.83;;;1.40;;
2011;SDS011;1009;51.436;6.972;2023-07-29T14:00:38;1.93;;;1.60;;
2011;SDS011;1009;51.436;6.972;2023-07-29T14:03:05;2.37;;;1.80;;
2011;SDS011;1009;51.436;6.972;2023-07-29T14:05:32;3.80;;;1.60;;
2011;SDS011;1009;51.436;6.972;2023-07-29T14:07:58;1.77;;;1.37;;
2011;SDS011;1009;51.436;6.972;2023-07-29T14:10:27;2.63;;;1.67;;
2011;SDS011;1009;51.436;6.972;2023-07-29T14:12:54;1.97;;;1.53;;
2011;SDS011;1009;51.436;6.972;2023-07-29T14:15:21;1.93;;;1.60;;
2011;SDS011;1009;51.436;6.972;2023-07-29T14:17:48;4.13;;;1.47;;
2011;SDS011;1009;51.436;6.972;2023-07-29T14:20:15;2.33;;;2.00;;
2011;SDS011;1009;51.436;6.972;2023-07-29T14:22:42;2.83;;;2.10;;
2011;SDS011;1009;51.436;6.972;2023-07-29T14:25:08;3.87;;;1.80;;
2011;SDS011;1009;51.436;6.972;2023-07-29T14:27:37;3.63;;;2.00;;
2011;SDS011;1009;51.436;6.972;2023-07-29T14:30:04;2.13;;;1.43;;
2011;SDS011;1009;51.436;6.972;2023-07-29T14:32:32;2.90;;;1.50;;
2011;SDS011;1009;51.436;6.972;2023-07-29T14:34:58;4.50;;;1.67;;
2011;SDS011;1009;51.436;6.972;2023-07-29T14:37:28;1.53;;;1.43;;
2011;SDS011;1009;51.436;6.972;2023-07-29T14:39:55;2.07;;;1.87;;
2011;SDS011;1009;51.436;6.972;2023-07-29T14:42:22;4.80;;;4.20;;
2011;SDS011;1009;51.436;6.972;2023-07-29T14:44:50;1.77;;;1.60;;
2011;SDS011;1009;51.436;6.972;2023-07-29T14:47:16;3.77;;;3.47;;
2011;SDS011;1009;51.436;6.972;2023-07-29T14:49:43;6.77;;;6.17;;
2011;SDS011;1009;51.436;6.972;2023-07-29T14:52:11;5.10;;;4.70;;
2011;SDS011;1009;51.436;6.972;2023-07-29T14:54:37;5.50;;;5.00;;
2011;SDS011;1009;51.436;6.972;2023-07-29T14:57:05;5.70;;;5.27;;
2011;SDS011;1009;51.436;6.972;2023-07-29T14:59:33;4.57;;;4.17;;
2011;SDS011;1009;51.436;6.972;2023-07-29T15:02:01;5.20;;;4.70;;
2011;SDS011;1009;51.436;6.972;2023-07-29T15:04:28;5.73;;;5.03;;
2011;SDS011;1009;51.436;6.972;2023-07-29T15:06:54;5.07;;;4.67;;
2011;SDS011;1009;51.436;6.972;2023-07-29T15:09:22;5.43;;;5.00;;
2011;SDS011;1009;51.436;6.972;2023-07-29T15:11:49;5.60;;;5.10;;
2011;SDS011;1009;51.436;6.972;2023-07-29T15:14:16;5.17;;;4.77;;
2011;SDS011;1009;51.436;6.972;2023-07-29T15:16:43;5.17;;;4.70;;
2011;SDS011;1009;51.436;6.972;2023-07-29T15:19:11;5.80;;;4.67;;
2011;SDS011;1009;51.436;6.972;2023-07-29T15:21:39;4.90;;;4.37;;
2011;SDS011;1009;51.436;6.972;2023-07-29T15:24:05;5.67;;;4.60;;